Terminal Aerodrome Forecast
Issued by NWS Sterling, VA

Current Version | Previous Version | Graphics & Text | Print | Product List | Glossary On
Versions: 1 2 3 4 5 6 7 8 9 10 11 12 13 14 15 16 17 18 19 20 21 22 23
000
FTUS41 KLWX 252100 AAA
TAFDCA
TAF AMD
KDCA 252100Z 2521/2618 18009KT P6SM BKN090 OVC250
     FM252300 07005KT P6SM OVC040
     FM260400 09008KT 5SM -RA OVC030
     FM261000 07009KT 3SM RASN BKN008 OVC015
      TEMPO 2613/2617 1/2SM SN OVC006=

USA.gov is the U.S. government's official web portal to all federal, state and local government web resources and services.